Terminal Aerodrome Forecast
Issued by NWS

Home | Current Version | Previous Version | Text Only | Print | Product List | Glossary On
Versions: 1 2 3 4 5 6 7 8 9 10 11 12 13 14 15 16
129
FTUS41 KPBZ 182320
TAFFKL
TAF
KFKL 182320Z 1900/1924 27006KT P6SM SCT045
     FM190900 24005KT 3SM BR BKN010
     FM191300 25006KT P6SM BKN045
     FM191700 26009KT P6SM VCTS BKN045CB
     FM192000 26007KT P6SM -SHRA VCTS BKN035CB
     FM192300 27004KT P6SM SCT045
      AMD LTD TO CLD VIS AND WIND=

USA.gov is the U.S. government's official web portal to all federal, state and local government web resources and services.